createdAt,value
2022-07-31T00:01:20.709Z,5.00
2022-07-31T00:06:24.642Z,4.70
2022-07-31T00:11:27.232Z,4.93
2022-07-31T00:16:29.818Z,4.20
2022-07-31T00:21:33.933Z,3.33
2022-07-31T00:26:36.504Z,3.60
2022-07-31T00:31:39.751Z,2.93
2022-07-31T00:36:43.784Z,3.10
2022-07-31T00:41:47.655Z,2.53
2022-07-31T00:46:51.239Z,3.00
2022-07-31T00:51:55.522Z,2.50
2022-07-31T00:56:58.125Z,2.80
2022-07-31T01:02:01.647Z,2.83
2022-07-31T01:07:06.421Z,2.57
2022-07-31T01:12:15.919Z,2.30
2022-07-31T01:17:20.109Z,2.90
2022-07-31T01:22:45.480Z,2.67
2022-07-31T01:28:03.408Z,2.90
2022-07-31T01:33:14.968Z,10.40
2022-07-31T01:38:23.201Z,2.70
2022-07-31T01:43:30.563Z,2.70
2022-07-31T01:48:36.436Z,2.87
2022-07-31T01:53:41.635Z,2.30
2022-07-31T01:58:46.618Z,3.43
2022-07-31T02:04:12.290Z,3.00
2022-07-31T02:09:16.249Z,2.80
2022-07-31T02:14:20.909Z,3.23
2022-07-31T02:19:25.877Z,3.37
2022-07-31T02:24:28.799Z,3.47
2022-07-31T02:29:33.908Z,3.63
2022-07-31T02:34:39.137Z,3.63
2022-07-31T02:39:43.469Z,4.10
2022-07-31T02:44:47.294Z,3.80
2022-07-31T02:49:51.669Z,4.03
2022-07-31T02:54:55.704Z,3.83
2022-07-31T03:00:01.864Z,3.67
2022-07-31T03:05:07.359Z,3.80
2022-07-31T03:10:11.524Z,3.90
2022-07-31T03:15:20.578Z,3.43
2022-07-31T03:20:24.730Z,4.10
2022-07-31T03:25:27.918Z,4.13
2022-07-31T03:30:30.778Z,4.17
2022-07-31T03:35:39.054Z,3.77
2022-07-31T03:40:44.927Z,4.03
2022-07-31T03:45:49.493Z,3.60
2022-07-31T03:50:54.101Z,3.70
2022-07-31T03:55:57.548Z,3.73
2022-07-31T04:01:00.528Z,3.43
2022-07-31T04:06:08.999Z,3.47
2022-07-31T04:11:11.695Z,3.30
2022-07-31T04:16:14.313Z,4.07
2022-07-31T04:21:18.386Z,4.20
2022-07-31T04:26:26.394Z,4.60
2022-07-31T04:31:38.611Z,4.27
2022-07-31T04:36:45.100Z,3.90
2022-07-31T04:41:48.189Z,3.90
2022-07-31T04:46:51.704Z,4.50
2022-07-31T04:51:56.129Z,4.67
2022-07-31T04:56:58.783Z,4.33
2022-07-31T05:02:02.044Z,4.17
2022-07-31T05:07:06.410Z,4.47
2022-07-31T05:12:09.589Z,5.00
2022-07-31T05:17:12.260Z,6.03
2022-07-31T05:22:37.810Z,5.13
2022-07-31T05:28:00.527Z,5.73
2022-07-31T05:33:05.279Z,5.30
2022-07-31T05:38:11.879Z,5.43
2022-07-31T05:43:33.464Z,5.30
2022-07-31T05:48:52.470Z,5.73
2022-07-31T05:53:57.136Z,6.67
2022-07-31T05:59:18.736Z,6.50
2022-07-31T06:04:21.430Z,5.70
2022-07-31T06:09:25.455Z,5.30
2022-07-31T06:14:29.269Z,6.10
2022-07-31T06:19:53.629Z,5.20
2022-07-31T06:24:58.524Z,5.40
2022-07-31T06:30:01.509Z,4.87
2022-07-31T06:35:05.718Z,4.10
2022-07-31T06:40:18.573Z,4.60
2022-07-31T06:45:35.700Z,4.70
2022-07-31T06:51:28.260Z,4.20
2022-07-31T06:56:28.664Z,3.30
2022-07-31T07:01:32.140Z,3.73
2022-07-31T07:06:35.019Z,3.80
2022-07-31T07:11:39.177Z,4.37
2022-07-31T07:16:41.998Z,4.07
2022-07-31T07:21:44.569Z,4.37
2022-07-31T07:26:48.618Z,4.30
2022-07-31T07:31:51.469Z,4.13
2022-07-31T07:36:55.107Z,3.63
2022-07-31T07:42:03.160Z,3.37
2022-07-31T07:47:07.856Z,4.27
2022-07-31T07:52:10.838Z,3.70
2022-07-31T07:57:16.993Z,3.80
2022-07-31T08:02:38.625Z,4.10
2022-07-31T08:07:43.864Z,3.10
2022-07-31T08:13:06.355Z,4.17
2022-07-31T08:18:29.863Z,3.30
2022-07-31T08:23:32.603Z,3.90
2022-07-31T08:28:38.626Z,4.60
2022-07-31T08:33:42.131Z,4.90
2022-07-31T08:38:45.161Z,4.17
2022-07-31T08:44:12.321Z,4.30
2022-07-31T08:49:17.607Z,3.90
2022-07-31T08:54:23.631Z,3.80
2022-07-31T08:59:27.700Z,3.77
2022-07-31T09:04:32.252Z,3.50
2022-07-31T09:09:50.899Z,3.20
2022-07-31T09:14:55.839Z,3.33
2022-07-31T09:20:00.614Z,3.10
2022-07-31T09:25:12.990Z,2.90
2022-07-31T09:30:17.289Z,2.97
2022-07-31T09:35:47.634Z,2.87
2022-07-31T09:40:56.817Z,2.90
2022-07-31T09:46:08.430Z,3.30
2022-07-31T09:51:11.138Z,2.53
2022-07-31T09:56:15.913Z,2.60
2022-07-31T10:01:20.631Z,3.47
2022-07-31T10:06:26.295Z,2.93
2022-07-31T10:11:31.139Z,3.00
2022-07-31T10:16:49.607Z,3.20
2022-07-31T10:22:13.318Z,2.90
2022-07-31T10:27:18.999Z,2.30
2022-07-31T10:32:28.052Z,2.80
2022-07-31T10:37:57.329Z,3.00
2022-07-31T10:43:25.588Z,2.80
2022-07-31T10:48:53.109Z,2.90
2022-07-31T10:54:21.952Z,2.70
2022-07-31T10:59:42.916Z,2.70
2022-07-31T11:05:27.876Z,2.60
2022-07-31T11:10:50.723Z,2.73
2022-07-31T11:16:19.922Z,2.40
2022-07-31T11:21:46.811Z,2.30
2022-07-31T11:26:50.685Z,2.37
2022-07-31T11:31:53.319Z,2.80
2022-07-31T11:36:57.588Z,2.10
2022-07-31T11:42:03.633Z,2.37
2022-07-31T11:47:27.594Z,2.50
2022-07-31T11:52:36.788Z,2.63
2022-07-31T11:57:52.292Z,2.20
2022-07-31T12:02:55.767Z,2.67
2022-07-31T12:08:00.010Z,2.30
2022-07-31T12:13:04.396Z,2.57
2022-07-31T12:18:07.744Z,2.70
2022-07-31T12:23:40.255Z,3.87
2022-07-31T12:28:35.507Z,2.93
2022-07-31T12:33:43.042Z,2.70
2022-07-31T12:38:49.059Z,2.43
2022-07-31T12:43:52.808Z,3.20
2022-07-31T12:48:56.071Z,2.70
2022-07-31T12:54:00.975Z,3.57
2022-07-31T12:59:04.366Z,3.03
2022-07-31T13:04:18.603Z,3.13
2022-07-31T13:09:24.024Z,2.80
2022-07-31T13:14:27.271Z,3.00
2022-07-31T13:19:31.508Z,2.80
2022-07-31T13:24:36.400Z,2.87
2022-07-31T13:29:40.039Z,3.00
2022-07-31T13:34:42.781Z,3.47
2022-07-31T13:39:46.867Z,2.57
2022-07-31T13:44:49.716Z,2.90
2022-07-31T13:49:53.563Z,2.90
2022-07-31T13:54:58.104Z,2.70
2022-07-31T14:00:00.733Z,3.20
2022-07-31T14:05:03.691Z,3.00
2022-07-31T14:10:11.384Z,3.10
2022-07-31T14:15:15.386Z,2.33
2022-07-31T14:20:18.473Z,2.73
2022-07-31T14:25:22.558Z,2.97
2022-07-31T14:30:25.749Z,3.37
2022-07-31T14:35:28.976Z,2.97
2022-07-31T14:40:33.113Z,2.60
2022-07-31T14:45:49.996Z,2.60
2022-07-31T14:50:54.698Z,3.07
2022-07-31T14:56:03.798Z,3.10
2022-07-31T15:01:06.968Z,2.77
2022-07-31T15:06:51.411Z,3.33
2022-07-31T15:11:57.377Z,3.30
2022-07-31T15:16:58.069Z,3.23
2022-07-31T15:22:10.210Z,3.73
2022-07-31T15:27:24.173Z,3.43
2022-07-31T15:32:27.509Z,3.03
2022-07-31T15:37:31.049Z,3.93
2022-07-31T15:42:37.923Z,3.90
2022-07-31T15:47:42.366Z,3.20
2022-07-31T15:52:44.972Z,3.07
2022-07-31T15:57:49.466Z,3.30
2022-07-31T16:02:52.959Z,3.40
2022-07-31T16:08:31.905Z,2.33
2022-07-31T16:13:19.833Z,2.47
2022-07-31T16:18:22.463Z,2.80
2022-07-31T16:23:25.654Z,3.30
2022-07-31T16:28:29.663Z,2.83
2022-07-31T16:33:32.232Z,3.00
2022-07-31T16:38:34.883Z,3.23
2022-07-31T16:43:49.955Z,3.70
2022-07-31T16:48:54.200Z,3.20
2022-07-31T16:54:13.070Z,2.77
2022-07-31T16:59:20.704Z,2.50
2022-07-31T17:04:23.291Z,2.57
2022-07-31T17:09:26.012Z,2.70
2022-07-31T17:14:30.078Z,3.27
2022-07-31T17:19:41.569Z,2.97
2022-07-31T17:24:50.396Z,2.47
2022-07-31T17:29:55.332Z,3.40
2022-07-31T17:34:57.901Z,3.10
2022-07-31T17:40:01.161Z,3.23
2022-07-31T17:45:06.126Z,3.67
2022-07-31T17:50:10.597Z,4.40
2022-07-31T17:55:13.360Z,4.30
2022-07-31T18:00:17.968Z,4.83
2022-07-31T18:05:20.555Z,5.07
2022-07-31T18:10:38.614Z,5.33
2022-07-31T18:15:48.168Z,5.70
2022-07-31T18:20:51.027Z,5.90
2022-07-31T18:25:53.727Z,7.23
2022-07-31T18:30:58.038Z,8.83
2022-07-31T18:36:00.925Z,7.80
2022-07-31T18:41:03.832Z,7.13
2022-07-31T18:46:07.832Z,8.30
2022-07-31T18:51:10.682Z,7.60
2022-07-31T18:56:13.909Z,7.23
2022-07-31T19:01:17.930Z,5.73
2022-07-31T19:06:22.550Z,6.60
2022-07-31T19:11:27.496Z,5.47
2022-07-31T19:16:31.607Z,5.57
2022-07-31T19:21:42.346Z,5.23
2022-07-31T19:26:45.360Z,5.77
2022-07-31T19:31:49.528Z,4.33
2022-07-31T19:36:52.223Z,4.97
2022-07-31T19:42:10.914Z,5.50
2022-07-31T19:47:16.125Z,5.03
2022-07-31T19:52:19.775Z,5.70
2022-07-31T19:57:23.423Z,5.20
2022-07-31T20:02:27.614Z,5.30
2022-07-31T20:07:32.942Z,5.77
2022-07-31T20:12:36.719Z,5.00
2022-07-31T20:17:40.761Z,6.27
2022-07-31T20:22:43.416Z,4.90
2022-07-31T20:27:46.274Z,5.10
2022-07-31T20:32:50.557Z,5.50
2022-07-31T20:37:55.569Z,5.43
2022-07-31T20:42:58.235Z,5.20
2022-07-31T20:48:02.394Z,5.33
2022-07-31T20:53:05.999Z,5.70
2022-07-31T20:58:08.606Z,5.07
2022-07-31T21:03:12.576Z,5.60
2022-07-31T21:08:15.516Z,5.67
2022-07-31T21:13:18.396Z,5.97
2022-07-31T21:18:22.950Z,6.13
2022-07-31T21:23:26.821Z,5.90
2022-07-31T21:28:29.755Z,5.33
2022-07-31T21:33:34.167Z,5.07
2022-07-31T21:38:37.516Z,5.60
2022-07-31T21:43:58.284Z,5.50
2022-07-31T21:49:04.885Z,6.30
2022-07-31T21:54:07.740Z,5.40
2022-07-31T21:59:10.369Z,5.63
2022-07-31T22:04:14.524Z,6.10
2022-07-31T22:09:18.865Z,6.83
2022-07-31T22:14:22.203Z,7.10
2022-07-31T22:19:26.781Z,6.83
2022-07-31T22:24:29.896Z,8.30
2022-07-31T22:29:36.310Z,7.10
2022-07-31T22:34:40.839Z,8.67
2022-07-31T22:39:43.621Z,7.90
2022-07-31T22:44:46.577Z,7.03
2022-07-31T22:49:50.881Z,7.00
2022-07-31T22:54:53.486Z,7.33
2022-07-31T22:59:56.308Z,7.20
2022-07-31T23:05:00.279Z,6.70
2022-07-31T23:10:03.201Z,7.53
2022-07-31T23:15:06.795Z,7.10
2022-07-31T23:20:11.744Z,7.77
2022-07-31T23:25:15.442Z,8.57
2022-07-31T23:30:19.637Z,8.10
2022-07-31T23:35:23.683Z,8.30
2022-07-31T23:40:26.251Z,7.40
2022-07-31T23:45:28.824Z,7.63
2022-07-31T23:50:33.461Z,8.47
2022-07-31T23:55:39.206Z,8.80
